createdAt,value
2017-11-27T00:01:17.239Z,63.42
2017-11-27T00:03:43.623Z,63.89
2017-11-27T00:06:09.948Z,64.12
2017-11-27T00:08:36.246Z,64.39
2017-11-27T00:11:02.570Z,64.57
2017-11-27T00:13:28.967Z,64.11
2017-11-27T00:15:56.015Z,64.68
2017-11-27T00:18:23.086Z,65.20
2017-11-27T00:20:49.494Z,64.78
2017-11-27T00:23:15.785Z,64.51
2017-11-27T00:25:42.122Z,64.46
2017-11-27T00:28:08.448Z,65.22
2017-11-27T00:30:34.810Z,65.21
2017-11-27T00:33:01.138Z,64.75
2017-11-27T00:35:27.541Z,64.94
2017-11-27T00:37:53.840Z,64.77
2017-11-27T00:40:20.155Z,64.68
2017-11-27T00:42:46.447Z,64.50
2017-11-27T00:45:12.765Z,64.48
2017-11-27T00:47:39.064Z,64.36
2017-11-27T00:50:05.420Z,64.24
2017-11-27T00:52:31.690Z,64.47
2017-11-27T00:54:58.041Z,64.63
2017-11-27T00:57:25.107Z,64.17
2017-11-27T00:59:51.454Z,64.33
2017-11-27T01:02:17.897Z,63.72
2017-11-27T01:04:44.327Z,64.27
2017-11-27T01:07:10.636Z,63.80
2017-11-27T01:09:36.909Z,63.88
2017-11-27T01:12:03.216Z,63.26
2017-11-27T01:14:29.485Z,63.74
2017-11-27T01:16:55.824Z,63.67
2017-11-27T01:19:22.136Z,63.89
2017-11-27T01:21:48.479Z,64.36
2017-11-27T01:24:14.822Z,64.28
2017-11-27T01:26:41.131Z,63.47
2017-11-27T01:29:07.463Z,63.48
2017-11-27T01:31:33.759Z,63.67
2017-11-27T01:34:00.075Z,63.98
2017-11-27T01:36:26.373Z,63.68
2017-11-27T01:38:52.742Z,63.59
2017-11-27T01:41:19.067Z,63.93
2017-11-27T01:43:45.350Z,63.78
2017-11-27T01:46:11.676Z,63.55
2017-11-27T01:48:38.091Z,63.27
2017-11-27T01:51:04.392Z,63.36
2017-11-27T01:53:30.807Z,63.21
2017-11-27T01:55:57.900Z,63.74
2017-11-27T01:58:24.202Z,63.80
2017-11-27T02:00:50.562Z,63.61
2017-11-27T02:03:16.922Z,63.35
2017-11-27T02:05:43.258Z,63.38
2017-11-27T02:08:10.375Z,63.10
2017-11-27T02:10:36.739Z,63.24
2017-11-27T02:13:03.032Z,63.37
2017-11-27T02:15:29.327Z,63.27
2017-11-27T02:17:56.397Z,63.09
2017-11-27T02:20:22.752Z,62.95
2017-11-27T02:22:49.111Z,62.92
2017-11-27T02:25:15.473Z,63.27
2017-11-27T02:27:42.541Z,63.31
2017-11-27T02:30:08.963Z,63.93
2017-11-27T02:32:35.283Z,63.53
2017-11-27T02:35:03.325Z,63.62
2017-11-27T02:37:29.702Z,63.91
2017-11-27T02:39:56.010Z,63.91
2017-11-27T02:42:22.312Z,63.42
2017-11-27T02:44:48.611Z,63.28
2017-11-27T02:47:14.902Z,63.42
2017-11-27T02:49:41.959Z,63.78
2017-11-27T02:52:09.103Z,63.50
2017-11-27T02:54:36.189Z,63.67
2017-11-27T02:57:02.515Z,63.53
2017-11-27T02:59:28.846Z,62.93
2017-11-27T03:01:55.161Z,63.32
2017-11-27T03:04:21.474Z,63.54
2017-11-27T03:06:48.523Z,63.23
2017-11-27T03:09:15.606Z,63.02
2017-11-27T03:11:42.916Z,63.71
2017-11-27T03:14:09.189Z,63.49
2017-11-27T03:16:35.490Z,62.99
2017-11-27T03:19:02.638Z,63.31
2017-11-27T03:21:29.802Z,63.51
2017-11-27T03:23:56.886Z,63.11
2017-11-27T03:26:23.245Z,62.90
2017-11-27T03:28:49.540Z,62.83
2017-11-27T03:31:15.888Z,62.70
2017-11-27T03:33:42.216Z,62.23
2017-11-27T03:36:08.538Z,62.01
2017-11-27T03:38:34.919Z,62.13
2017-11-27T03:41:01.216Z,62.78
2017-11-27T03:43:27.547Z,62.33
2017-11-27T03:45:53.917Z,62.55
2017-11-27T03:48:20.974Z,62.54
2017-11-27T03:50:48.058Z,62.56
2017-11-27T03:53:14.447Z,62.02
2017-11-27T03:55:41.489Z,62.15
2017-11-27T03:58:07.818Z,61.80
2017-11-27T04:00:34.160Z,61.68
2017-11-27T04:03:01.241Z,61.95
2017-11-27T04:05:27.538Z,61.89
2017-11-27T04:07:54.619Z,61.94
2017-11-27T04:10:21.000Z,62.13
2017-11-27T04:12:47.285Z,61.78
2017-11-27T04:15:13.670Z,62.60
2017-11-27T04:17:40.718Z,62.00
2017-11-27T04:20:07.098Z,61.93
2017-11-27T04:22:33.431Z,62.14
2017-11-27T04:24:59.784Z,62.47
2017-11-27T04:27:26.114Z,62.83
2017-11-27T04:29:52.438Z,62.59
2017-11-27T04:32:18.869Z,63.20
2017-11-27T04:34:45.158Z,63.10
2017-11-27T04:37:11.468Z,62.98
2017-11-27T04:39:37.851Z,63.32
2017-11-27T04:42:04.230Z,63.25
2017-11-27T04:44:30.657Z,63.46
2017-11-27T04:46:56.997Z,63.62
2017-11-27T04:49:24.178Z,63.94
2017-11-27T04:51:50.535Z,63.78
2017-11-27T04:54:16.911Z,63.81
2017-11-27T04:56:43.984Z,64.03
2017-11-27T04:59:10.288Z,64.44
2017-11-27T05:01:36.619Z,64.62
2017-11-27T05:04:02.979Z,64.84
2017-11-27T05:06:29.301Z,64.72
2017-11-27T05:08:56.354Z,64.80
2017-11-27T05:11:23.414Z,65.05
2017-11-27T05:13:54.701Z,65.25
2017-11-27T05:16:21.003Z,65.31
2017-11-27T05:18:47.319Z,65.18
2017-11-27T05:21:13.743Z,64.95
2017-11-27T05:23:40.759Z,64.57
2017-11-27T05:26:07.096Z,64.48
2017-11-27T05:28:33.443Z,64.53
2017-11-27T05:30:59.764Z,64.43
2017-11-27T05:33:26.804Z,64.42
2017-11-27T05:35:53.117Z,64.10
2017-11-27T05:38:19.384Z,64.03
2017-11-27T05:40:45.669Z,64.33
2017-11-27T05:43:11.997Z,64.07
2017-11-27T05:45:38.346Z,64.49
2017-11-27T05:48:04.659Z,64.00
2017-11-27T05:50:30.996Z,64.48
2017-11-27T05:52:57.253Z,64.42
2017-11-27T05:55:23.650Z,64.62
2017-11-27T05:57:49.897Z,64.82
2017-11-27T06:00:16.230Z,65.17
2017-11-27T06:02:42.544Z,65.03
2017-11-27T06:05:08.840Z,65.21
2017-11-27T06:07:35.178Z,65.07
2017-11-27T06:10:01.528Z,65.10
2017-11-27T06:12:27.833Z,65.31
2017-11-27T06:14:54.867Z,65.29
2017-11-27T06:17:21.240Z,65.36
2017-11-27T06:19:47.532Z,65.17
2017-11-27T06:22:14.587Z,65.35
2017-11-27T06:24:40.883Z,65.53
2017-11-27T06:27:07.202Z,65.78
2017-11-27T06:29:33.580Z,65.85
2017-11-27T06:32:00.617Z,66.19
2017-11-27T06:34:27.749Z,66.07
2017-11-27T06:36:54.087Z,66.15
2017-11-27T06:39:20.426Z,66.26
2017-11-27T06:41:47.824Z,66.25
2017-11-27T06:44:14.093Z,66.40
2017-11-27T06:46:48.450Z,66.28
2017-11-27T06:49:14.783Z,66.15
2017-11-27T06:51:41.799Z,66.01
2017-11-27T06:54:08.153Z,65.96
2017-11-27T06:56:35.187Z,65.96
2017-11-27T06:59:01.536Z,65.94
2017-11-27T07:01:27.843Z,65.57
2017-11-27T07:03:54.283Z,65.17
2017-11-27T07:06:21.409Z,65.09
2017-11-27T07:08:47.859Z,65.30
2017-11-27T07:11:14.188Z,65.11
2017-11-27T07:13:40.501Z,65.05
2017-11-27T07:16:06.825Z,64.93
2017-11-27T07:18:33.162Z,64.67
2017-11-27T07:20:59.438Z,64.17
2017-11-27T07:23:27.754Z,64.10
2017-11-27T07:25:54.080Z,63.72
2017-11-27T07:28:20.383Z,63.55
2017-11-27T07:30:46.764Z,63.42
2017-11-27T07:33:13.099Z,63.42
2017-11-27T07:35:39.417Z,63.03
2017-11-27T07:41:15.037Z,62.37
2017-11-27T07:43:42.142Z,61.86
2017-11-27T07:46:08.494Z,62.03
2017-11-27T07:48:35.010Z,61.54
2017-11-27T07:51:01.494Z,61.01
2017-11-27T07:53:27.916Z,61.20
2017-11-27T07:55:54.249Z,60.95
2017-11-27T07:58:21.351Z,60.67
2017-11-27T08:00:47.746Z,60.21
2017-11-27T08:03:14.909Z,60.24
2017-11-27T08:05:41.181Z,60.19
2017-11-27T08:08:07.501Z,59.50
2017-11-27T08:10:33.832Z,58.69
2017-11-27T08:13:00.092Z,58.17
2017-11-27T08:15:26.420Z,58.24
2017-11-27T08:17:52.725Z,57.93
2017-11-27T08:20:19.050Z,57.50
2017-11-27T08:22:46.061Z,57.13
2017-11-27T08:25:13.233Z,56.78
2017-11-27T08:27:39.516Z,56.87
2017-11-27T08:30:06.592Z,56.56
2017-11-27T08:32:32.883Z,56.00
2017-11-27T08:34:59.271Z,56.48
2017-11-27T08:37:25.584Z,56.07
2017-11-27T08:39:52.662Z,55.94
2017-11-27T08:42:18.911Z,55.82
2017-11-27T08:44:45.231Z,56.04
2017-11-27T08:47:11.527Z,55.60
2017-11-27T08:49:37.806Z,54.44
2017-11-27T08:52:04.146Z,55.38
2017-11-27T08:54:31.190Z,55.60
2017-11-27T08:56:57.804Z,55.43
2017-11-27T08:59:24.095Z,54.83
2017-11-27T09:01:51.190Z,54.17
2017-11-27T09:04:18.290Z,54.46
2017-11-27T09:06:45.362Z,54.18
2017-11-27T09:09:11.645Z,53.36
2017-11-27T09:11:37.962Z,53.48
2017-11-27T09:14:04.290Z,53.67
2017-11-27T09:16:30.686Z,53.10
2017-11-27T09:18:57.048Z,53.33
2017-11-27T09:21:23.666Z,53.56
2017-11-27T09:23:49.963Z,53.29
2017-11-27T09:26:16.308Z,53.27
2017-11-27T09:28:42.581Z,53.10
2017-11-27T09:31:08.849Z,52.58
2017-11-27T09:33:35.945Z,52.36
2017-11-27T09:36:02.332Z,52.58
2017-11-27T09:38:29.369Z,52.40
2017-11-27T09:40:55.697Z,51.61
2017-11-27T09:43:22.723Z,51.70
2017-11-27T09:45:49.017Z,51.39
2017-11-27T09:48:15.357Z,51.19
2017-11-27T09:50:41.642Z,50.80
2017-11-27T09:53:08.728Z,50.80
2017-11-27T09:55:35.085Z,50.68
2017-11-27T09:58:01.374Z,50.23
2017-11-27T10:00:27.710Z,51.06
2017-11-27T10:02:54.049Z,50.06
2017-11-27T10:05:20.379Z,50.83
2017-11-27T10:07:46.678Z,49.94
2017-11-27T10:10:13.700Z,50.33
2017-11-27T10:12:40.080Z,48.81
2017-11-27T10:15:06.423Z,49.39
2017-11-27T10:17:32.821Z,49.56
2017-11-27T10:19:59.170Z,48.42
2017-11-27T10:22:26.305Z,49.23
2017-11-27T10:24:52.631Z,49.26
2017-11-27T10:27:18.892Z,48.85
2017-11-27T10:29:45.267Z,48.89
2017-11-27T10:32:11.588Z,48.04
2017-11-27T10:34:37.895Z,48.57
2017-11-27T10:37:04.198Z,48.55
2017-11-27T10:39:31.236Z,48.52
2017-11-27T10:41:58.273Z,48.34
2017-11-27T10:44:24.610Z,48.55
2017-11-27T10:46:50.944Z,48.06
2017-11-27T10:49:17.346Z,47.68
2017-11-27T10:51:43.698Z,46.92
2017-11-27T10:54:10.042Z,46.36
2017-11-27T10:56:36.453Z,45.29
2017-11-27T10:59:03.581Z,44.35
2017-11-27T11:01:29.919Z,43.38
2017-11-27T11:03:56.250Z,41.67
2017-11-27T11:06:22.569Z,42.78
2017-11-27T11:08:48.886Z,41.82
2017-11-27T11:11:15.254Z,39.50
2017-11-27T11:13:41.572Z,39.21
2017-11-27T11:16:07.910Z,39.14
2017-11-27T11:18:34.255Z,38.75
2017-11-27T11:21:00.738Z,37.41
2017-11-27T11:23:27.058Z,36.81
2017-11-27T11:25:53.407Z,35.88
2017-11-27T11:28:19.744Z,35.50
2017-11-27T11:30:46.133Z,35.25
2017-11-27T11:33:12.479Z,34.92
2017-11-27T11:35:39.672Z,35.34
2017-11-27T11:38:06.076Z,35.42
2017-11-27T11:40:32.547Z,37.02
2017-11-27T11:42:58.943Z,37.08
2017-11-27T11:45:25.269Z,36.02
2017-11-27T11:47:51.662Z,36.89
2017-11-27T11:50:18.764Z,38.02
2017-11-27T11:52:45.117Z,38.13
2017-11-27T11:55:11.402Z,37.52
2017-11-27T11:57:38.408Z,37.98
2017-11-27T12:00:04.705Z,36.67
2017-11-27T12:02:31.030Z,35.56
2017-11-27T12:04:57.349Z,35.57
2017-11-27T12:07:23.694Z,34.43
2017-11-27T12:09:50.020Z,35.13
2017-11-27T12:12:17.124Z,36.60
2017-11-27T12:14:44.164Z,35.41
2017-11-27T12:17:10.492Z,35.76
2017-11-27T12:19:36.879Z,36.20
2017-11-27T12:22:03.919Z,35.95
2017-11-27T12:24:31.133Z,37.02
2017-11-27T12:26:57.454Z,36.85
2017-11-27T12:29:23.785Z,35.34
2017-11-27T12:31:50.121Z,33.65
2017-11-27T12:34:17.197Z,33.05
2017-11-27T12:36:43.571Z,34.19
2017-11-27T12:39:09.946Z,33.80
2017-11-27T12:41:36.253Z,33.54
2017-11-27T12:44:02.522Z,33.74
2017-11-27T12:46:29.676Z,36.99
2017-11-27T12:48:56.119Z,37.74
2017-11-27T12:51:23.172Z,38.37
2017-11-27T12:53:50.245Z,36.90
2017-11-27T12:56:16.541Z,39.13
2017-11-27T12:58:43.590Z,40.54
2017-11-27T13:01:10.761Z,40.66
2017-11-27T13:03:37.027Z,41.35
2017-11-27T13:06:03.407Z,42.30
2017-11-27T13:08:30.454Z,42.59
2017-11-27T13:10:57.489Z,42.62
2017-11-27T13:13:23.787Z,42.30
2017-11-27T13:15:50.083Z,42.21
2017-11-27T13:18:16.385Z,42.62
2017-11-27T13:20:42.737Z,42.54
2017-11-27T13:23:09.117Z,41.97
2017-11-27T13:25:35.442Z,42.72
2017-11-27T13:28:01.754Z,43.11
2017-11-27T13:30:28.048Z,43.53
2017-11-27T13:32:54.369Z,43.36
2017-11-27T13:35:20.690Z,42.98
2017-11-27T13:37:46.958Z,42.77
2017-11-27T13:40:14.017Z,43.20
2017-11-27T13:42:40.322Z,43.48
2017-11-27T13:45:07.421Z,42.46
2017-11-27T13:47:33.686Z,43.78
2017-11-27T13:49:59.990Z,43.76
2017-11-27T13:52:26.346Z,43.63
2017-11-27T13:54:52.635Z,43.59
2017-11-27T13:57:19.004Z,42.69
2017-11-27T13:59:45.255Z,42.82
2017-11-27T14:02:12.316Z,43.16
2017-11-27T14:04:38.635Z,43.28
2017-11-27T14:07:05.685Z,43.74
2017-11-27T14:09:32.719Z,43.91
2017-11-27T14:11:59.091Z,44.22
2017-11-27T14:14:25.409Z,44.32
2017-11-27T14:16:51.723Z,44.06
2017-11-27T14:19:18.765Z,44.03
2017-11-27T14:21:45.809Z,44.55
2017-11-27T14:24:12.066Z,44.67
2017-11-27T14:26:38.371Z,44.76
2017-11-27T14:29:04.661Z,45.38
2017-11-27T14:31:31.009Z,45.47
2017-11-27T14:33:57.278Z,45.73
2017-11-27T14:36:24.308Z,45.86
2017-11-27T14:38:50.599Z,45.75
2017-11-27T14:41:16.888Z,45.75
2017-11-27T14:43:43.217Z,46.11
2017-11-27T14:46:10.246Z,45.51
2017-11-27T14:48:36.589Z,45.55
2017-11-27T14:51:03.622Z,45.78
2017-11-27T14:53:29.979Z,46.10
2017-11-27T14:55:57.042Z,46.73
2017-11-27T14:58:23.371Z,47.25
2017-11-27T15:00:49.772Z,46.92
2017-11-27T15:03:16.913Z,47.17
2017-11-27T15:05:43.270Z,47.04
2017-11-27T15:08:10.355Z,47.33
2017-11-27T15:10:36.718Z,47.30
2017-11-27T15:13:03.063Z,48.13
2017-11-27T15:15:29.373Z,48.26
2017-11-27T15:17:55.839Z,48.75
2017-11-27T15:20:22.280Z,48.48
2017-11-27T15:22:49.435Z,48.88
2017-11-27T15:25:16.499Z,48.98
2017-11-27T15:27:42.817Z,49.98
2017-11-27T15:30:09.949Z,50.73
2017-11-27T15:32:36.358Z,51.24
2017-11-27T15:35:16.888Z,51.25
2017-11-27T15:37:43.252Z,52.14
2017-11-27T15:40:09.610Z,52.46
2017-11-27T15:42:36.079Z,53.29
2017-11-27T15:45:02.485Z,53.71
2017-11-27T15:47:28.835Z,53.84
2017-11-27T15:49:55.247Z,54.09
2017-11-27T15:52:22.414Z,53.89
2017-11-27T15:54:48.761Z,54.02
2017-11-27T15:57:15.098Z,54.75
2017-11-27T15:59:41.459Z,54.72
2017-11-27T16:02:07.783Z,54.51
2017-11-27T16:04:34.187Z,55.06
2017-11-27T16:07:00.658Z,55.47
2017-11-27T16:09:26.992Z,55.53
2017-11-27T16:11:53.385Z,56.28
2017-11-27T16:14:19.783Z,56.44
2017-11-27T16:16:46.179Z,56.87
2017-11-27T16:19:12.470Z,56.86
2017-11-27T16:21:38.752Z,57.82
2017-11-27T16:24:05.554Z,58.08
2017-11-27T16:26:31.909Z,58.59
2017-11-27T16:28:58.284Z,58.27
2017-11-27T16:31:24.752Z,58.37
2017-11-27T16:33:51.084Z,58.81
2017-11-27T16:36:17.395Z,59.58
2017-11-27T16:38:44.447Z,60.31
2017-11-27T16:41:10.754Z,60.80
2017-11-27T16:43:37.071Z,60.64
2017-11-27T16:46:03.372Z,60.69
2017-11-27T16:48:29.819Z,61.85
2017-11-27T16:51:18.300Z,62.21
2017-11-27T16:53:44.702Z,63.34
2017-11-27T16:56:11.068Z,62.78
2017-11-27T16:58:37.450Z,62.79
2017-11-27T17:01:03.812Z,63.07
2017-11-27T17:03:30.120Z,63.80
2017-11-27T17:05:56.516Z,64.39
2017-11-27T17:08:23.933Z,65.10
2017-11-27T17:10:50.403Z,65.06
2017-11-27T17:13:16.975Z,64.91
2017-11-27T17:15:43.477Z,65.20
2017-11-27T17:18:10.147Z,65.70
2017-11-27T17:20:37.001Z,66.62
2017-11-27T17:23:03.353Z,65.93
2017-11-27T17:25:29.809Z,67.02
2017-11-27T17:27:56.963Z,67.49
2017-11-27T17:30:24.515Z,67.18
2017-11-27T17:32:50.990Z,66.38
2017-11-27T17:35:17.564Z,67.25
2017-11-27T17:37:44.251Z,67.03
2017-11-27T17:40:10.666Z,67.30
2017-11-27T17:42:38.258Z,67.01
2017-11-27T17:45:04.716Z,68.00
2017-11-27T17:47:31.212Z,68.51
2017-11-27T17:49:58.367Z,68.73
2017-11-27T17:52:25.442Z,68.85
2017-11-27T17:54:51.765Z,69.28
2017-11-27T17:57:18.048Z,68.96
2017-11-27T17:59:44.499Z,69.29
2017-11-27T18:02:11.583Z,69.62
2017-11-27T18:04:37.912Z,70.08
2017-11-27T18:07:04.546Z,71.10
2017-11-27T18:09:30.911Z,71.54
2017-11-27T18:11:57.422Z,71.25
2017-11-27T18:14:23.809Z,71.75
2017-11-27T18:16:52.191Z,72.12
2017-11-27T18:19:20.418Z,72.30
2017-11-27T18:21:47.279Z,72.33
2017-11-27T18:24:13.732Z,72.22
2017-11-27T18:26:40.872Z,72.31
2017-11-27T18:29:07.356Z,72.27
2017-11-27T18:31:33.768Z,72.81
2017-11-27T18:34:00.898Z,71.90
2017-11-27T18:36:27.276Z,71.84
2017-11-27T18:38:53.625Z,71.99
2017-11-27T18:41:19.942Z,73.20
2017-11-27T18:43:46.311Z,73.07
2017-11-27T18:46:12.697Z,73.05
2017-11-27T18:48:39.131Z,73.46
2017-11-27T18:51:05.501Z,73.65
2017-11-27T18:53:31.843Z,73.02
2017-11-27T18:55:58.261Z,74.17
2017-11-27T18:58:24.587Z,74.11
2017-11-27T19:00:50.958Z,74.21
2017-11-27T19:03:17.282Z,74.35
2017-11-27T19:05:43.629Z,74.91
2017-11-27T19:08:10.121Z,74.61
2017-11-27T19:10:36.576Z,74.17
2017-11-27T19:13:02.978Z,75.04
2017-11-27T19:15:36.884Z,74.96
2017-11-27T19:18:03.616Z,75.23
2017-11-27T19:20:31.597Z,74.11
2017-11-27T19:23:00.460Z,74.55
2017-11-27T19:25:27.822Z,75.13
2017-11-27T19:27:54.750Z,74.91
2017-11-27T19:30:22.370Z,74.48
2017-11-27T19:32:51.826Z,75.49
2017-11-27T19:35:18.232Z,75.52
2017-11-27T19:37:45.346Z,75.17
2017-11-27T19:40:11.923Z,75.19
2017-11-27T19:42:39.070Z,74.87
2017-11-27T19:45:06.651Z,75.51
2017-11-27T19:47:33.367Z,75.33
2017-11-27T19:50:01.170Z,74.66
2017-11-27T19:52:28.635Z,74.71
2017-11-27T19:54:55.331Z,74.89
2017-11-27T19:57:21.997Z,74.78
2017-11-27T19:59:48.716Z,75.05
2017-11-27T20:02:15.213Z,74.23
2017-11-27T20:04:41.808Z,73.34
2017-11-27T20:07:09.245Z,74.21
2017-11-27T20:09:39.089Z,74.15
2017-11-27T20:12:05.614Z,75.04
2017-11-27T20:14:32.103Z,73.99
2017-11-27T20:16:59.080Z,74.03
2017-11-27T20:19:26.470Z,73.89
2017-11-27T20:21:56.487Z,73.73
2017-11-27T20:24:23.302Z,74.17
2017-11-27T20:26:49.967Z,74.96
2017-11-27T20:29:16.563Z,74.60
2017-11-27T20:31:43.355Z,74.90
2017-11-27T20:34:10.006Z,74.72
2017-11-27T20:36:37.711Z,74.37
2017-11-27T20:39:04.271Z,74.84
2017-11-27T20:41:32.116Z,74.67
2017-11-27T20:43:59.271Z,73.88
2017-11-27T20:46:26.766Z,73.94
2017-11-27T20:48:53.281Z,74.14
2017-11-27T20:51:20.729Z,74.38
2017-11-27T20:53:48.049Z,74.18
2017-11-27T20:56:14.969Z,73.55
2017-11-27T20:58:44.020Z,74.55
2017-11-27T21:01:11.198Z,73.99
2017-11-27T21:03:37.919Z,73.96
2017-11-27T21:06:05.168Z,74.36
2017-11-27T21:08:32.417Z,74.66
2017-11-27T21:11:00.797Z,75.08
2017-11-27T21:13:29.868Z,75.26
2017-11-27T21:16:12.845Z,75.16
2017-11-27T21:42:54.101Z,74.85
2017-11-27T21:45:23.523Z,73.60
2017-11-27T21:47:55.432Z,74.08
2017-11-27T21:50:22.626Z,73.51
2017-11-27T21:52:50.478Z,73.84
2017-11-27T21:55:18.153Z,74.17
2017-11-27T22:04:14.980Z,74.53
2017-11-27T22:06:41.639Z,74.20
2017-11-27T22:09:08.499Z,74.05
2017-11-27T22:11:35.500Z,74.05
2017-11-27T22:14:02.724Z,74.29
2017-11-27T22:16:30.577Z,73.63
2017-11-27T22:18:57.705Z,73.03
2017-11-27T22:21:45.467Z,72.37
2017-11-27T22:24:12.129Z,72.88
2017-11-27T22:26:38.814Z,72.50
2017-11-27T22:29:05.545Z,72.05
2017-11-27T22:31:32.340Z,71.76
2017-11-27T22:33:59.121Z,71.29
2017-11-27T22:36:26.484Z,71.47
2017-11-27T22:38:53.189Z,70.41
2017-11-27T22:41:20.182Z,70.66
2017-11-27T22:43:46.924Z,70.11
2017-11-27T22:46:13.759Z,70.04
2017-11-27T22:48:40.495Z,69.73
2017-11-27T22:51:07.255Z,69.05
2017-11-27T22:53:34.167Z,68.55
2017-11-27T22:56:01.677Z,68.17
2017-11-27T23:01:29.581Z,67.69
2017-11-27T23:03:56.257Z,67.50
2017-11-27T23:06:23.334Z,67.08
2017-11-27T23:08:51.075Z,67.02
2017-11-27T23:11:18.858Z,66.53
2017-11-27T23:13:47.064Z,66.70
2017-11-27T23:16:15.807Z,66.23
2017-11-27T23:18:44.854Z,66.21
2017-11-27T23:21:16.384Z,65.68
2017-11-27T23:23:45.992Z,65.78
2017-11-27T23:26:16.641Z,64.63
2017-11-27T23:44:03.329Z,65.11
2017-11-27T23:46:30.622Z,64.50
2017-11-27T23:48:57.127Z,64.37
2017-11-27T23:51:23.547Z,64.57
2017-11-27T23:53:50.731Z,64.78
2017-11-27T23:56:17.113Z,64.65
2017-11-27T23:58:43.644Z,64.15
